Portada
METAR-TAF:

METAR-TAF

Aeroports :

Al-Hassà, Aràbia Saudita

latitud: 25-18N, longitud: 049-29E, altitud: 179 m

Observació

L'informe es va fer fa 1 hora i 14 minuts, a les 12:00 UTC
Vent 5 kt del Nord/Nord-Est
Temperatura 47°C
Humitat 11%
Pressió 996 hPa
Visibilitat 10 km o més
sense núvols per sota de 1500 mi sense presència de cumulonimbus.

METAR: OEAH 081200Z 03005KT CAVOK 47/09 Q0996 NOSIG

Hora: 16:14 (13:14 UTC)

Pronòstic

L'informe es va fer fa 3 hores i 49 minuts, a les 09:25 UTC
Pronòstic vàlid del 08 a les 12 UTC al 09 a les 18 UTC
Vent 13 kt del Est/Nord-Est
Visibilitat: 8000 m
Evolucionant progressivament
l' 08 a les 20 UTC al 08 a les 22 UTC
Vent 3 kt amb direcció variable
Temporalment
l' 09 a les 00 UTC al 09 a les 05 UTC
Visibilitat: 5000 m
calitja

TAF: OEAH 080925Z 0812/0918 06013KT 8000 NSC BECMG 0820/0822 VRB03KT TEMPO 0900/0905 5000 HZ

Observacions i pronòstics meteorològics de més de 4000 aeroports (METAR i TAF).

Les estacions disponibles són els punts grocs i vermells al mapa.

Posi el ratolí al punt desitjat per veure el nom de l'estació.

Feu clic per veure les observacions i els pronòstics meteorològics.

Per canviar el mapa: feu clic els botons verds amb una creu de color negre per apropar; al botó verd amb un guió per allunyar la imatge; o en les fletxes verdes per a mapes adjacents.


METAR-TAF: